sensor_id;sensor_type;location;lat;lon;timestamp;temperature;humidity
70107;DHT22;57473;37.508;15.080;2022-11-03T00:01:45;17.60;66.80
70107;DHT22;57473;37.508;15.080;2022-11-03T00:04:14;17.60;66.90
70107;DHT22;57473;37.508;15.080;2022-11-03T00:06:43;17.60;66.50
70107;DHT22;57473;37.508;15.080;2022-11-03T00:09:12;17.60;66.10
70107;DHT22;57473;37.508;15.080;2022-11-03T00:11:41;17.70;66.20
70107;DHT22;57473;37.508;15.080;2022-11-03T00:14:09;17.60;66.70
70107;DHT22;57473;37.508;15.080;2022-11-03T00:16:38;17.60;67.20
70107;DHT22;57473;37.508;15.080;2022-11-03T00:19:07;17.50;67.30
70107;DHT22;57473;37.508;15.080;2022-11-03T00:21:35;17.50;67.80
70107;DHT22;57473;37.508;15.080;2022-11-03T00:24:03;17.40;68.00
70107;DHT22;57473;37.508;15.080;2022-11-03T00:26:33;17.40;68.00
70107;DHT22;57473;37.508;15.080;2022-11-03T00:29:09;17.40;68.10
70107;DHT22;57473;37.508;15.080;2022-11-03T00:31:38;17.30;67.80
70107;DHT22;57473;37.508;15.080;2022-11-03T00:34:06;17.30;67.30
70107;DHT22;57473;37.508;15.080;2022-11-03T00:36:36;17.30;67.30
70107;DHT22;57473;37.508;15.080;2022-11-03T00:39:04;17.20;67.60
70107;DHT22;57473;37.508;15.080;2022-11-03T00:41:32;17.20;67.80
70107;DHT22;57473;37.508;15.080;2022-11-03T00:43:59;17.20;67.30
70107;DHT22;57473;37.508;15.080;2022-11-03T00:46:27;17.20;67.10
70107;DHT22;57473;37.508;15.080;2022-11-03T00:48:56;17.20;66.80
70107;DHT22;57473;37.508;15.080;2022-11-03T00:51:26;17.20;66.80
70107;DHT22;57473;37.508;15.080;2022-11-03T00:53:57;17.20;67.00
70107;DHT22;57473;37.508;15.080;2022-11-03T00:56:27;17.20;67.00
70107;DHT22;57473;37.508;15.080;2022-11-03T00:58:57;17.20;66.70
70107;DHT22;57473;37.508;15.080;2022-11-03T01:01:30;17.20;66.70
70107;DHT22;57473;37.508;15.080;2022-11-03T01:03:58;17.20;66.80
70107;DHT22;57473;37.508;15.080;2022-11-03T01:06:46;17.20;67.30
70107;DHT22;57473;37.508;15.080;2022-11-03T01:09:21;17.20;67.60
70107;DHT22;57473;37.508;15.080;2022-11-03T01:12:01;17.10;67.70
70107;DHT22;57473;37.508;15.080;2022-11-03T01:14:38;17.10;67.50
70107;DHT22;57473;37.508;15.080;2022-11-03T01:17:07;17.10;66.80
70107;DHT22;57473;37.508;15.080;2022-11-03T01:19:35;17.10;66.70
70107;DHT22;57473;37.508;15.080;2022-11-03T01:22:02;17.10;66.60
70107;DHT22;57473;37.508;15.080;2022-11-03T01:24:36;17.10;66.60
70107;DHT22;57473;37.508;15.080;2022-11-03T01:27:04;17.10;66.80
70107;DHT22;57473;37.508;15.080;2022-11-03T01:29:31;17.10;67.40
70107;DHT22;57473;37.508;15.080;2022-11-03T01:31:58;17.00;67.70
70107;DHT22;57473;37.508;15.080;2022-11-03T01:34:26;17.00;67.60
70107;DHT22;57473;37.508;15.080;2022-11-03T01:36:53;17.00;67.70
70107;DHT22;57473;37.508;15.080;2022-11-03T01:39:21;17.00;68.00
70107;DHT22;57473;37.508;15.080;2022-11-03T01:41:49;17.00;66.90
70107;DHT22;57473;37.508;15.080;2022-11-03T01:46:55;16.90;67.10
70107;DHT22;57473;37.508;15.080;2022-11-03T01:49:47;16.90;67.30
70107;DHT22;57473;37.508;15.080;2022-11-03T01:52:27;16.90;67.60
70107;DHT22;57473;37.508;15.080;2022-11-03T01:55:03;16.80;67.70
70107;DHT22;57473;37.508;15.080;2022-11-03T01:57:37;16.80;68.00
70107;DHT22;57473;37.508;15.080;2022-11-03T02:00:07;16.80;68.30
70107;DHT22;57473;37.508;15.080;2022-11-03T02:02:40;16.70;68.60
70107;DHT22;57473;37.508;15.080;2022-11-03T02:05:09;16.70;68.70
70107;DHT22;57473;37.508;15.080;2022-11-03T02:08:07;16.70;68.30
70107;DHT22;57473;37.508;15.080;2022-11-03T02:10:40;16.70;68.50
70107;DHT22;57473;37.508;15.080;2022-11-03T02:13:16;16.70;68.70
70107;DHT22;57473;37.508;15.080;2022-11-03T02:15:46;16.60;68.50
70107;DHT22;57473;37.508;15.080;2022-11-03T02:18:16;16.60;68.60
70107;DHT22;57473;37.508;15.080;2022-11-03T02:20:50;16.60;68.40
70107;DHT22;57473;37.508;15.080;2022-11-03T02:23:40;16.60;68.00
70107;DHT22;57473;37.508;15.080;2022-11-03T02:26:10;16.60;67.40
70107;DHT22;57473;37.508;15.080;2022-11-03T02:28:39;16.70;67.00
70107;DHT22;57473;37.508;15.080;2022-11-03T02:31:18;16.70;66.60
70107;DHT22;57473;37.508;15.080;2022-11-03T02:39:18;16.80;66.70
70107;DHT22;57473;37.508;15.080;2022-11-03T02:41:48;16.80;65.80
70107;DHT22;57473;37.508;15.080;2022-11-03T02:44:18;16.80;65.70
70107;DHT22;57473;37.508;15.080;2022-11-03T02:46:56;16.80;65.90
70107;DHT22;57473;37.508;15.080;2022-11-03T02:49:24;16.80;65.80
70107;DHT22;57473;37.508;15.080;2022-11-03T02:52:02;16.90;65.70
70107;DHT22;57473;37.508;15.080;2022-11-03T02:54:41;16.80;65.90
70107;DHT22;57473;37.508;15.080;2022-11-03T02:57:19;16.80;66.00
70107;DHT22;57473;37.508;15.080;2022-11-03T02:59:56;16.80;66.20
70107;DHT22;57473;37.508;15.080;2022-11-03T03:02:32;16.80;66.30
70107;DHT22;57473;37.508;15.080;2022-11-03T03:05:05;16.70;66.30
70107;DHT22;57473;37.508;15.080;2022-11-03T03:07:37;16.70;66.60
70107;DHT22;57473;37.508;15.080;2022-11-03T03:10:11;16.60;66.80
70107;DHT22;57473;37.508;15.080;2022-11-03T03:12:46;16.60;67.20
70107;DHT22;57473;37.508;15.080;2022-11-03T03:15:16;16.60;67.30
70107;DHT22;57473;37.508;15.080;2022-11-03T03:17:48;16.50;67.90
70107;DHT22;57473;37.508;15.080;2022-11-03T03:22:48;16.50;68.60
70107;DHT22;57473;37.508;15.080;2022-11-03T03:27:51;16.40;68.80
70107;DHT22;57473;37.508;15.080;2022-11-03T03:30:19;16.40;69.50
70107;DHT22;57473;37.508;15.080;2022-11-03T03:32:49;16.40;69.70
70107;DHT22;57473;37.508;15.080;2022-11-03T03:35:20;16.40;69.90
70107;DHT22;57473;37.508;15.080;2022-11-03T03:37:49;16.40;69.90
70107;DHT22;57473;37.508;15.080;2022-11-03T03:40:26;16.30;70.00
70107;DHT22;57473;37.508;15.080;2022-11-03T03:42:56;16.30;70.10
70107;DHT22;57473;37.508;15.080;2022-11-03T03:45:25;16.30;70.30
70107;DHT22;57473;37.508;15.080;2022-11-03T03:47:52;16.30;70.60
70107;DHT22;57473;37.508;15.080;2022-11-03T03:50:35;16.30;71.00
70107;DHT22;57473;37.508;15.080;2022-11-03T03:53:05;16.20;71.40
70107;DHT22;57473;37.508;15.080;2022-11-03T03:55:40;16.20;71.70
70107;DHT22;57473;37.508;15.080;2022-11-03T03:58:11;16.30;71.90
70107;DHT22;57473;37.508;15.080;2022-11-03T04:00:40;16.20;72.00
70107;DHT22;57473;37.508;15.080;2022-11-03T04:03:22;16.20;72.70
70107;DHT22;57473;37.508;15.080;2022-11-03T04:05:50;16.20;72.80
70107;DHT22;57473;37.508;15.080;2022-11-03T04:08:19;16.30;72.90
70107;DHT22;57473;37.508;15.080;2022-11-03T04:10:46;16.30;73.30
70107;DHT22;57473;37.508;15.080;2022-11-03T04:13:32;16.20;73.70
70107;DHT22;57473;37.508;15.080;2022-11-03T04:16:18;16.20;74.00
70107;DHT22;57473;37.508;15.080;2022-11-03T04:19:03;16.20;74.10
70107;DHT22;57473;37.508;15.080;2022-11-03T04:21:49;16.20;74.10
70107;DHT22;57473;37.508;15.080;2022-11-03T04:24:35;16.20;74.60
70107;DHT22;57473;37.508;15.080;2022-11-03T04:30:01;16.20;75.10
70107;DHT22;57473;37.508;15.080;2022-11-03T04:32:33;16.20;75.20
70107;DHT22;57473;37.508;15.080;2022-11-03T04:35:00;16.20;75.50
70107;DHT22;57473;37.508;15.080;2022-11-03T04:37:28;16.20;75.50
70107;DHT22;57473;37.508;15.080;2022-11-03T04:39:59;16.20;75.60
70107;DHT22;57473;37.508;15.080;2022-11-03T04:42:30;16.20;76.10
70107;DHT22;57473;37.508;15.080;2022-11-03T04:45:00;16.20;76.20
70107;DHT22;57473;37.508;15.080;2022-11-03T04:47:29;16.20;76.80
70107;DHT22;57473;37.508;15.080;2022-11-03T04:49:57;16.20;76.80
70107;DHT22;57473;37.508;15.080;2022-11-03T04:52:25;16.20;77.10
70107;DHT22;57473;37.508;15.080;2022-11-03T04:54:52;16.10;77.60
70107;DHT22;57473;37.508;15.080;2022-11-03T04:57:20;16.10;78.00
70107;DHT22;57473;37.508;15.080;2022-11-03T04:59:49;16.20;78.10
70107;DHT22;57473;37.508;15.080;2022-11-03T05:02:18;16.10;78.70
70107;DHT22;57473;37.508;15.080;2022-11-03T05:04:47;16.20;79.50
70107;DHT22;57473;37.508;15.080;2022-11-03T05:07:22;16.20;79.60
70107;DHT22;57473;37.508;15.080;2022-11-03T05:09:49;16.30;79.60
70107;DHT22;57473;37.508;15.080;2022-11-03T05:12:18;16.30;79.50
70107;DHT22;57473;37.508;15.080;2022-11-03T05:14:46;16.30;79.40
70107;DHT22;57473;37.508;15.080;2022-11-03T05:17:25;16.30;79.30
70107;DHT22;57473;37.508;15.080;2022-11-03T05:19:59;16.30;79.30
70107;DHT22;57473;37.508;15.080;2022-11-03T05:22:31;16.30;79.20
70107;DHT22;57473;37.508;15.080;2022-11-03T05:25:03;16.20;79.10
70107;DHT22;57473;37.508;15.080;2022-11-03T05:27:36;16.20;78.90
70107;DHT22;57473;37.508;15.080;2022-11-03T05:30:11;16.20;79.10
70107;DHT22;57473;37.508;15.080;2022-11-03T05:32:39;16.20;79.30
70107;DHT22;57473;37.508;15.080;2022-11-03T05:35:21;16.30;79.00
70107;DHT22;57473;37.508;15.080;2022-11-03T05:37:49;16.30;78.60
70107;DHT22;57473;37.508;15.080;2022-11-03T05:40:21;16.30;78.40
70107;DHT22;57473;37.508;15.080;2022-11-03T05:43:09;16.20;78.60
70107;DHT22;57473;37.508;15.080;2022-11-03T05:45:39;16.20;79.20
70107;DHT22;57473;37.508;15.080;2022-11-03T05:48:23;16.30;79.30
70107;DHT22;57473;37.508;15.080;2022-11-03T05:50:51;16.30;79.40
70107;DHT22;57473;37.508;15.080;2022-11-03T05:55:56;16.40;79.40
70107;DHT22;57473;37.508;15.080;2022-11-03T05:58:28;16.40;79.60
70107;DHT22;57473;37.508;15.080;2022-11-03T06:00:58;16.50;79.60
70107;DHT22;57473;37.508;15.080;2022-11-03T06:03:28;16.60;79.50
70107;DHT22;57473;37.508;15.080;2022-11-03T06:05:56;16.60;79.40
70107;DHT22;57473;37.508;15.080;2022-11-03T06:08:33;16.70;79.20
70107;DHT22;57473;37.508;15.080;2022-11-03T06:11:03;16.80;79.00
70107;DHT22;57473;37.508;15.080;2022-11-03T06:13:35;16.80;78.70
70107;DHT22;57473;37.508;15.080;2022-11-03T06:16:40;16.90;78.60
70107;DHT22;57473;37.508;15.080;2022-11-03T06:19:28;17.00;78.30
70107;DHT22;57473;37.508;15.080;2022-11-03T06:22:11;17.10;77.80
70107;DHT22;57473;37.508;15.080;2022-11-03T06:24:40;17.20;77.40
70107;DHT22;57473;37.508;15.080;2022-11-03T06:27:19;17.20;76.80
70107;DHT22;57473;37.508;15.080;2022-11-03T06:30:30;17.30;76.60
70107;DHT22;57473;37.508;15.080;2022-11-03T06:33:03;17.40;76.10
70107;DHT22;57473;37.508;15.080;2022-11-03T06:35:34;17.50;75.80
70107;DHT22;57473;37.508;15.080;2022-11-03T06:38:01;17.60;75.20
70107;DHT22;57473;37.508;15.080;2022-11-03T06:40:34;17.60;75.00
70107;DHT22;57473;37.508;15.080;2022-11-03T06:43:22;17.80;74.60
70107;DHT22;57473;37.508;15.080;2022-11-03T06:45:52;17.90;74.10
70107;DHT22;57473;37.508;15.080;2022-11-03T06:48:28;18.00;73.70
70107;DHT22;57473;37.508;15.080;2022-11-03T06:50:57;18.10;73.30
70107;DHT22;57473;37.508;15.080;2022-11-03T06:53:34;18.20;72.60
70107;DHT22;57473;37.508;15.080;2022-11-03T06:56:10;18.40;72.10
70107;DHT22;57473;37.508;15.080;2022-11-03T06:58:39;18.50;71.80
70107;DHT22;57473;37.508;15.080;2022-11-03T07:01:35;18.60;71.10
70107;DHT22;57473;37.508;15.080;2022-11-03T07:04:12;18.70;70.40
70107;DHT22;57473;37.508;15.080;2022-11-03T07:06:41;18.90;70.50
70107;DHT22;57473;37.508;15.080;2022-11-03T07:09:15;19.00;70.30
70107;DHT22;57473;37.508;15.080;2022-11-03T07:11:51;19.20;70.30
70107;DHT22;57473;37.508;15.080;2022-11-03T07:14:26;19.40;70.00
70107;DHT22;57473;37.508;15.080;2022-11-03T07:16:58;19.60;70.10
70107;DHT22;57473;37.508;15.080;2022-11-03T07:19:35;19.80;70.10
70107;DHT22;57473;37.508;15.080;2022-11-03T07:22:20;19.90;70.30
70107;DHT22;57473;37.508;15.080;2022-11-03T07:24:52;20.10;70.90
70107;DHT22;57473;37.508;15.080;2022-11-03T07:27:30;20.30;71.40
70107;DHT22;57473;37.508;15.080;2022-11-03T07:32:43;20.60;72.50
70107;DHT22;57473;37.508;15.080;2022-11-03T07:37:46;20.90;73.70
70107;DHT22;57473;37.508;15.080;2022-11-03T07:40:24;21.10;74.40
70107;DHT22;57473;37.508;15.080;2022-11-03T07:42:58;21.20;75.80
70107;DHT22;57473;37.508;15.080;2022-11-03T07:45:43;21.30;71.50
70107;DHT22;57473;37.508;15.080;2022-11-03T07:50:47;21.40;69.80
70107;DHT22;57473;37.508;15.080;2022-11-03T07:55:53;21.40;68.10
70107;DHT22;57473;37.508;15.080;2022-11-03T07:58:32;21.50;67.30
70107;DHT22;57473;37.508;15.080;2022-11-03T08:01:01;21.50;67.60
70107;DHT22;57473;37.508;15.080;2022-11-03T08:03:45;21.60;68.60
70107;DHT22;57473;37.508;15.080;2022-11-03T08:06:13;21.70;70.10
70107;DHT22;57473;37.508;15.080;2022-11-03T08:08:46;21.80;73.30
70107;DHT22;57473;37.508;15.080;2022-11-03T08:11:13;21.70;73.80
70107;DHT22;57473;37.508;15.080;2022-11-03T08:13:45;21.80;74.40
70107;DHT22;57473;37.508;15.080;2022-11-03T08:16:12;21.80;73.80
70107;DHT22;57473;37.508;15.080;2022-11-03T08:18:39;21.80;73.80
70107;DHT22;57473;37.508;15.080;2022-11-03T08:21:07;21.90;73.70
70107;DHT22;57473;37.508;15.080;2022-11-03T08:23:34;22.00;72.50
70107;DHT22;57473;37.508;15.080;2022-11-03T08:26:01;22.00;71.50
70107;DHT22;57473;37.508;15.080;2022-11-03T08:28:29;22.10;67.90
70107;DHT22;57473;37.508;15.080;2022-11-03T08:30:57;22.10;67.50
70107;DHT22;57473;37.508;15.080;2022-11-03T08:33:28;22.10;67.30
70107;DHT22;57473;37.508;15.080;2022-11-03T08:36:01;22.10;67.10
70107;DHT22;57473;37.508;15.080;2022-11-03T08:38:29;22.20;66.00
70107;DHT22;57473;37.508;15.080;2022-11-03T08:40:56;22.20;66.70
70107;DHT22;57473;37.508;15.080;2022-11-03T08:43:28;22.30;66.90
70107;DHT22;57473;37.508;15.080;2022-11-03T08:45:55;22.30;66.40
70107;DHT22;57473;37.508;15.080;2022-11-03T08:48:29;22.40;66.00
70107;DHT22;57473;37.508;15.080;2022-11-03T08:50:57;22.50;66.40
70107;DHT22;57473;37.508;15.080;2022-11-03T08:53:25;22.50;66.50
70107;DHT22;57473;37.508;15.080;2022-11-03T08:55:53;22.60;66.10
70107;DHT22;57473;37.508;15.080;2022-11-03T08:58:21;22.80;67.50
70107;DHT22;57473;37.508;15.080;2022-11-03T09:00:49;23.00;67.10
70107;DHT22;57473;37.508;15.080;2022-11-03T09:03:18;23.10;66.70
70107;DHT22;57473;37.508;15.080;2022-11-03T09:05:45;23.10;65.80
70107;DHT22;57473;37.508;15.080;2022-11-03T09:08:12;23.10;65.10
70107;DHT22;57473;37.508;15.080;2022-11-03T09:11:00;23.10;65.80
70107;DHT22;57473;37.508;15.080;2022-11-03T09:13:27;23.20;66.40
70107;DHT22;57473;37.508;15.080;2022-11-03T09:15:54;23.20;66.10
70107;DHT22;57473;37.508;15.080;2022-11-03T09:18:21;23.30;65.60
70107;DHT22;57473;37.508;15.080;2022-11-03T09:20:49;23.40;64.90
70107;DHT22;57473;37.508;15.080;2022-11-03T09:23:16;23.30;64.90
70107;DHT22;57473;37.508;15.080;2022-11-03T09:25:43;23.40;63.80
70107;DHT22;57473;37.508;15.080;2022-11-03T09:28:11;23.50;63.50
70107;DHT22;57473;37.508;15.080;2022-11-03T09:30:38;23.60;63.00
70107;DHT22;57473;37.508;15.080;2022-11-03T09:33:05;23.70;61.60
70107;DHT22;57473;37.508;15.080;2022-11-03T09:35:32;23.70;61.00
70107;DHT22;57473;37.508;15.080;2022-11-03T09:38:00;23.60;60.70
70107;DHT22;57473;37.508;15.080;2022-11-03T09:40:27;23.70;60.10
70107;DHT22;57473;37.508;15.080;2022-11-03T09:42:55;23.60;60.10
70107;DHT22;57473;37.508;15.080;2022-11-03T09:45:23;23.70;59.80
70107;DHT22;57473;37.508;15.080;2022-11-03T09:47:50;23.70;59.30
70107;DHT22;57473;37.508;15.080;2022-11-03T09:50:19;23.70;59.60
70107;DHT22;57473;37.508;15.080;2022-11-03T09:52:47;23.80;60.20
70107;DHT22;57473;37.508;15.080;2022-11-03T09:55:22;23.90;59.50
70107;DHT22;57473;37.508;15.080;2022-11-03T09:58:00;23.90;59.30
70107;DHT22;57473;37.508;15.080;2022-11-03T10:00:27;24.00;58.70
70107;DHT22;57473;37.508;15.080;2022-11-03T10:02:55;24.00;58.80
70107;DHT22;57473;37.508;15.080;2022-11-03T10:05:26;24.00;59.00
70107;DHT22;57473;37.508;15.080;2022-11-03T10:08:00;24.00;58.40
70107;DHT22;57473;37.508;15.080;2022-11-03T10:10:29;24.10;58.30
70107;DHT22;57473;37.508;15.080;2022-11-03T10:12:58;24.10;57.60
70107;DHT22;57473;37.508;15.080;2022-11-03T10:15:27;24.20;57.50
70107;DHT22;57473;37.508;15.080;2022-11-03T10:17:54;24.20;57.80
70107;DHT22;57473;37.508;15.080;2022-11-03T10:20:22;24.30;57.30
70107;DHT22;57473;37.508;15.080;2022-11-03T10:22:52;24.30;57.70
70107;DHT22;57473;37.508;15.080;2022-11-03T10:28:19;24.00;58.40
70107;DHT22;57473;37.508;15.080;2022-11-03T10:30:54;24.00;58.40
70107;DHT22;57473;37.508;15.080;2022-11-03T10:33:53;24.20;57.50
70107;DHT22;57473;37.508;15.080;2022-11-03T10:36:21;24.40;57.30
70107;DHT22;57473;37.508;15.080;2022-11-03T10:38:49;24.40;56.90
70107;DHT22;57473;37.508;15.080;2022-11-03T10:41:18;24.50;57.00
70107;DHT22;57473;37.508;15.080;2022-11-03T10:44:18;24.90;57.00
70107;DHT22;57473;37.508;15.080;2022-11-03T10:46:59;25.20;57.00
70107;DHT22;57473;37.508;15.080;2022-11-03T10:49:31;25.70;55.00
70107;DHT22;57473;37.508;15.080;2022-11-03T10:52:27;25.60;56.20
70107;DHT22;57473;37.508;15.080;2022-11-03T10:54:57;26.10;55.00
70107;DHT22;57473;37.508;15.080;2022-11-03T10:57:26;26.50;53.20
70107;DHT22;57473;37.508;15.080;2022-11-03T10:59:54;26.20;53.20
70107;DHT22;57473;37.508;15.080;2022-11-03T11:02:25;26.20;52.60
70107;DHT22;57473;37.508;15.080;2022-11-03T11:05:07;26.50;52.10
70107;DHT22;57473;37.508;15.080;2022-11-03T11:07:40;27.00;51.20
70107;DHT22;57473;37.508;15.080;2022-11-03T11:10:26;26.70;51.30
70107;DHT22;57473;37.508;15.080;2022-11-03T11:13:23;27.00;52.00
70107;DHT22;57473;37.508;15.080;2022-11-03T11:20:56;28.20;49.00
70107;DHT22;57473;37.508;15.080;2022-11-03T11:36:41;29.50;44.40
70107;DHT22;57473;37.508;15.080;2022-11-03T11:42:09;29.40;43.60
70107;DHT22;57473;37.508;15.080;2022-11-03T11:47:30;29.40;44.50
70107;DHT22;57473;37.508;15.080;2022-11-03T11:55:30;29.80;43.00
70107;DHT22;57473;37.508;15.080;2022-11-03T11:57:59;29.30;43.70
70107;DHT22;57473;37.508;15.080;2022-11-03T12:00:32;28.70;45.10
70107;DHT22;57473;37.508;15.080;2022-11-03T12:03:01;28.60;45.10
70107;DHT22;57473;37.508;15.080;2022-11-03T12:05:33;28.30;46.60
70107;DHT22;57473;37.508;15.080;2022-11-03T12:08:15;28.00;47.70
70107;DHT22;57473;37.508;15.080;2022-11-03T12:10:54;28.10;47.40
70107;DHT22;57473;37.508;15.080;2022-11-03T12:16:30;28.10;47.50
70107;DHT22;57473;37.508;15.080;2022-11-03T12:22:05;27.70;47.50
70107;DHT22;57473;37.508;15.080;2022-11-03T12:27:16;27.80;48.30
70107;DHT22;57473;37.508;15.080;2022-11-03T12:29:45;28.40;47.30
70107;DHT22;57473;37.508;15.080;2022-11-03T12:32:12;28.60;47.30
70107;DHT22;57473;37.508;15.080;2022-11-03T12:35:03;29.10;45.90
70107;DHT22;57473;37.508;15.080;2022-11-03T12:37:31;28.90;46.40
70107;DHT22;57473;37.508;15.080;2022-11-03T12:39:58;29.00;46.40
70107;DHT22;57473;37.508;15.080;2022-11-03T12:42:26;29.10;47.20
70107;DHT22;57473;37.508;15.080;2022-11-03T12:44:53;29.00;47.10
70107;DHT22;57473;37.508;15.080;2022-11-03T12:47:20;28.80;47.80
70107;DHT22;57473;37.508;15.080;2022-11-03T12:49:48;28.90;47.30
70107;DHT22;57473;37.508;15.080;2022-11-03T12:52:15;28.70;48.80
70107;DHT22;57473;37.508;15.080;2022-11-03T12:54:42;27.90;50.70
70107;DHT22;57473;37.508;15.080;2022-11-03T12:57:10;26.90;52.80
70107;DHT22;57473;37.508;15.080;2022-11-03T12:59:38;26.20;54.60
70107;DHT22;57473;37.508;15.080;2022-11-03T13:02:05;25.80;57.10
70107;DHT22;57473;37.508;15.080;2022-11-03T13:04:32;25.50;57.30
70107;DHT22;57473;37.508;15.080;2022-11-03T13:07:00;25.30;57.50
70107;DHT22;57473;37.508;15.080;2022-11-03T13:09:27;25.00;59.80
70107;DHT22;57473;37.508;15.080;2022-11-03T13:11:54;24.90;59.70
70107;DHT22;57473;37.508;15.080;2022-11-03T13:15:05;24.70;61.00
70107;DHT22;57473;37.508;15.080;2022-11-03T13:17:32;24.30;61.50
70107;DHT22;57473;37.508;15.080;2022-11-03T13:20:20;24.10;60.50
70107;DHT22;57473;37.508;15.080;2022-11-03T13:22:47;24.00;61.60
70107;DHT22;57473;37.508;15.080;2022-11-03T13:25:15;24.00;62.20
70107;DHT22;57473;37.508;15.080;2022-11-03T13:27:42;24.00;61.60
70107;DHT22;57473;37.508;15.080;2022-11-03T13:30:10;24.00;60.80
70107;DHT22;57473;37.508;15.080;2022-11-03T13:32:38;23.90;61.10
70107;DHT22;57473;37.508;15.080;2022-11-03T13:35:05;23.90;61.80
70107;DHT22;57473;37.508;15.080;2022-11-03T13:37:39;23.70;61.60
70107;DHT22;57473;37.508;15.080;2022-11-03T13:40:07;23.70;61.30
70107;DHT22;57473;37.508;15.080;2022-11-03T13:42:49;23.60;62.10
70107;DHT22;57473;37.508;15.080;2022-11-03T13:45:19;23.50;63.60
70107;DHT22;57473;37.508;15.080;2022-11-03T13:47:46;23.60;62.70
70107;DHT22;57473;37.508;15.080;2022-11-03T13:50:33;23.60;61.20
70107;DHT22;57473;37.508;15.080;2022-11-03T13:53:01;23.60;62.10
70107;DHT22;57473;37.508;15.080;2022-11-03T13:55:48;23.60;61.30
70107;DHT22;57473;37.508;15.080;2022-11-03T13:58:16;23.70;61.70
70107;DHT22;57473;37.508;15.080;2022-11-03T14:01:03;23.60;60.40
70107;DHT22;57473;37.508;15.080;2022-11-03T14:03:31;23.60;61.90
70107;DHT22;57473;37.508;15.080;2022-11-03T14:06:21;23.60;63.00
70107;DHT22;57473;37.508;15.080;2022-11-03T14:08:48;23.60;61.70
70107;DHT22;57473;37.508;15.080;2022-11-03T14:11:16;23.70;61.60
70107;DHT22;57473;37.508;15.080;2022-11-03T14:14:01;23.60;61.70
70107;DHT22;57473;37.508;15.080;2022-11-03T14:16:29;23.60;58.60
70107;DHT22;57473;37.508;15.080;2022-11-03T14:18:56;23.50;58.90
70107;DHT22;57473;37.508;15.080;2022-11-03T14:21:23;23.50;59.40
70107;DHT22;57473;37.508;15.080;2022-11-03T14:23:51;23.50;58.70
70107;DHT22;57473;37.508;15.080;2022-11-03T14:26:18;23.50;56.40
70107;DHT22;57473;37.508;15.080;2022-11-03T14:29:06;23.50;56.70
70107;DHT22;57473;37.508;15.080;2022-11-03T14:31:34;23.50;55.90
70107;DHT22;57473;37.508;15.080;2022-11-03T14:34:01;23.50;56.80
70107;DHT22;57473;37.508;15.080;2022-11-03T14:36:29;23.50;59.30
70107;DHT22;57473;37.508;15.080;2022-11-03T14:38:59;23.50;62.10
70107;DHT22;57473;37.508;15.080;2022-11-03T14:41:27;23.40;61.40
70107;DHT22;57473;37.508;15.080;2022-11-03T14:44:12;23.30;62.60
70107;DHT22;57473;37.508;15.080;2022-11-03T14:46:45;23.30;63.80
70107;DHT22;57473;37.508;15.080;2022-11-03T14:49:17;23.30;64.80
70107;DHT22;57473;37.508;15.080;2022-11-03T14:51:44;23.30;64.10
70107;DHT22;57473;37.508;15.080;2022-11-03T14:54:11;23.20;65.70
70107;DHT22;57473;37.508;15.080;2022-11-03T14:56:39;23.20;66.50
70107;DHT22;57473;37.508;15.080;2022-11-03T14:59:12;23.20;67.60
70107;DHT22;57473;37.508;15.080;2022-11-03T15:01:40;23.10;67.60
70107;DHT22;57473;37.508;15.080;2022-11-03T15:04:07;23.10;67.80
70107;DHT22;57473;37.508;15.080;2022-11-03T15:06:35;23.10;68.30
70107;DHT22;57473;37.508;15.080;2022-11-03T15:09:03;23.00;68.60
70107;DHT22;57473;37.508;15.080;2022-11-03T15:11:31;23.00;68.50
70107;DHT22;57473;37.508;15.080;2022-11-03T15:13:58;23.00;68.70
70107;DHT22;57473;37.508;15.080;2022-11-03T15:16:26;23.00;67.80
70107;DHT22;57473;37.508;15.080;2022-11-03T15:18:53;22.90;68.50
70107;DHT22;57473;37.508;15.080;2022-11-03T15:21:21;22.90;68.70
70107;DHT22;57473;37.508;15.080;2022-11-03T15:23:48;22.80;68.60
70107;DHT22;57473;37.508;15.080;2022-11-03T15:26:36;22.80;68.50
70107;DHT22;57473;37.508;15.080;2022-11-03T15:29:03;22.70;68.70
70107;DHT22;57473;37.508;15.080;2022-11-03T15:31:30;22.70;69.00
70107;DHT22;57473;37.508;15.080;2022-11-03T15:33:57;22.60;69.70
70107;DHT22;57473;37.508;15.080;2022-11-03T15:36:30;22.60;70.30
70107;DHT22;57473;37.508;15.080;2022-11-03T15:38:59;22.50;70.30
70107;DHT22;57473;37.508;15.080;2022-11-03T15:41:27;22.50;70.70
70107;DHT22;57473;37.508;15.080;2022-11-03T15:44:04;22.40;71.20
70107;DHT22;57473;37.508;15.080;2022-11-03T15:46:34;22.30;71.50
70107;DHT22;57473;37.508;15.080;2022-11-03T15:49:10;22.30;72.20
70107;DHT22;57473;37.508;15.080;2022-11-03T15:51:38;22.30;72.70
70107;DHT22;57473;37.508;15.080;2022-11-03T15:54:05;22.20;73.10
70107;DHT22;57473;37.508;15.080;2022-11-03T15:56:32;22.20;73.00
70107;DHT22;57473;37.508;15.080;2022-11-03T15:59:00;22.10;73.10
70107;DHT22;57473;37.508;15.080;2022-11-03T16:01:27;22.10;73.10
70107;DHT22;57473;37.508;15.080;2022-11-03T16:03:55;22.10;72.90
70107;DHT22;57473;37.508;15.080;2022-11-03T16:06:23;22.00;72.80
70107;DHT22;57473;37.508;15.080;2022-11-03T16:09:10;22.00;72.80
70107;DHT22;57473;37.508;15.080;2022-11-03T16:11:37;21.90;72.50
70107;DHT22;57473;37.508;15.080;2022-11-03T16:14:04;21.90;72.60
70107;DHT22;57473;37.508;15.080;2022-11-03T16:16:32;21.80;72.50
70107;DHT22;57473;37.508;15.080;2022-11-03T16:18:59;21.80;72.70
70107;DHT22;57473;37.508;15.080;2022-11-03T16:21:26;21.70;73.00
70107;DHT22;57473;37.508;15.080;2022-11-03T16:23:54;21.70;73.20
70107;DHT22;57473;37.508;15.080;2022-11-03T16:26:22;21.60;73.50
70107;DHT22;57473;37.508;15.080;2022-11-03T16:28:50;21.60;73.80
70107;DHT22;57473;37.508;15.080;2022-11-03T16:31:17;21.50;74.30
70107;DHT22;57473;37.508;15.080;2022-11-03T16:33:45;21.50;74.90
70107;DHT22;57473;37.508;15.080;2022-11-03T16:36:12;21.40;75.50
70107;DHT22;57473;37.508;15.080;2022-11-03T16:38:39;21.40;76.00
70107;DHT22;57473;37.508;15.080;2022-11-03T16:41:06;21.40;76.50
70107;DHT22;57473;37.508;15.080;2022-11-03T16:43:34;21.30;77.00
70107;DHT22;57473;37.508;15.080;2022-11-03T16:46:02;21.30;77.50
70107;DHT22;57473;37.508;15.080;2022-11-03T16:48:30;21.30;78.00
70107;DHT22;57473;37.508;15.080;2022-11-03T16:51:00;21.20;78.40
70107;DHT22;57473;37.508;15.080;2022-11-03T16:53:27;21.20;78.50
70107;DHT22;57473;37.508;15.080;2022-11-03T16:55:55;21.20;78.60